sensor_id;sensor_type;location;lat;lon;timestamp;P1;durP1;ratioP1;P2;durP2;ratioP2
75603;SDS011;64187;51.010;13.792;2024-03-29T00:00:48;0.63;;;0.40;;
75603;SDS011;64187;51.010;13.792;2024-03-29T00:05:48;1.08;;;0.40;;
75603;SDS011;64187;51.010;13.792;2024-03-29T00:10:46;0.73;;;0.50;;
75603;SDS011;64187;51.010;13.792;2024-03-29T00:15:48;2.33;;;0.50;;
75603;SDS011;64187;51.010;13.792;2024-03-29T00:20:46;0.73;;;0.40;;
75603;SDS011;64187;51.010;13.792;2024-03-29T00:25:45;0.70;;;0.40;;
75603;SDS011;64187;51.010;13.792;2024-03-29T00:30:43;2.22;;;0.40;;
75603;SDS011;64187;51.010;13.792;2024-03-29T00:35:41;2.17;;;0.32;;
75603;SDS011;64187;51.010;13.792;2024-03-29T00:40:39;1.92;;;0.50;;
75603;SDS011;64187;51.010;13.792;2024-03-29T00:45:37;1.30;;;0.38;;
75603;SDS011;64187;51.010;13.792;2024-03-29T00:50:35;5.68;;;0.50;;
75603;SDS011;64187;51.010;13.792;2024-03-29T00:55:34;2.40;;;0.40;;
75603;SDS011;64187;51.010;13.792;2024-03-29T01:00:32;2.72;;;0.70;;
75603;SDS011;64187;51.010;13.792;2024-03-29T01:05:30;3.22;;;1.20;;
75603;SDS011;64187;51.010;13.792;2024-03-29T01:10:28;1.55;;;1.13;;
75603;SDS011;64187;51.010;13.792;2024-03-29T01:15:26;1.33;;;1.13;;
75603;SDS011;64187;51.010;13.792;2024-03-29T01:20:24;2.28;;;1.33;;
75603;SDS011;64187;51.010;13.792;2024-03-29T01:25:22;1.98;;;1.13;;
75603;SDS011;64187;51.010;13.792;2024-03-29T01:30:21;2.47;;;1.80;;
75603;SDS011;64187;51.010;13.792;2024-03-29T01:35:20;2.50;;;1.40;;
75603;SDS011;64187;51.010;13.792;2024-03-29T01:40:18;2.83;;;1.30;;
75603;SDS011;64187;51.010;13.792;2024-03-29T01:45:15;3.72;;;1.63;;
75603;SDS011;64187;51.010;13.792;2024-03-29T01:50:14;3.30;;;1.50;;
75603;SDS011;64187;51.010;13.792;2024-03-29T01:55:12;4.55;;;1.48;;
75603;SDS011;64187;51.010;13.792;2024-03-29T02:00:10;3.80;;;1.00;;
75603;SDS011;64187;51.010;13.792;2024-03-29T02:05:09;5.55;;;1.05;;
75603;SDS011;64187;51.010;13.792;2024-03-29T02:10:09;1.85;;;1.30;;
75603;SDS011;64187;51.010;13.792;2024-03-29T02:15:14;1.92;;;0.90;;
75603;SDS011;64187;51.010;13.792;2024-03-29T02:20:14;2.63;;;1.33;;
75603;SDS011;64187;51.010;13.792;2024-03-29T02:25:11;2.58;;;0.88;;
75603;SDS011;64187;51.010;13.792;2024-03-29T02:30:16;1.48;;;0.65;;
75603;SDS011;64187;51.010;13.792;2024-03-29T02:35:15;3.70;;;0.98;;
75603;SDS011;64187;51.010;13.792;2024-03-29T02:40:13;2.50;;;0.90;;
75603;SDS011;64187;51.010;13.792;2024-03-29T02:45:11;2.08;;;0.70;;
75603;SDS011;64187;51.010;13.792;2024-03-29T02:50:10;2.80;;;1.02;;
75603;SDS011;64187;51.010;13.792;2024-03-29T02:55:10;2.20;;;1.00;;
75603;SDS011;64187;51.010;13.792;2024-03-29T03:00:08;1.67;;;0.77;;
75603;SDS011;64187;51.010;13.792;2024-03-29T03:05:09;1.95;;;0.70;;
75603;SDS011;64187;51.010;13.792;2024-03-29T03:10:07;3.47;;;1.00;;
75603;SDS011;64187;51.010;13.792;2024-03-29T03:15:23;2.40;;;1.15;;
75603;SDS011;64187;51.010;13.792;2024-03-29T03:20:21;3.75;;;1.67;;
75603;SDS011;64187;51.010;13.792;2024-03-29T03:25:20;2.70;;;1.20;;
75603;SDS011;64187;51.010;13.792;2024-03-29T03:30:18;3.38;;;1.30;;
75603;SDS011;64187;51.010;13.792;2024-03-29T03:35:16;1.70;;;1.27;;
75603;SDS011;64187;51.010;13.792;2024-03-29T03:40:13;2.42;;;1.10;;
75603;SDS011;64187;51.010;13.792;2024-03-29T03:45:11;3.60;;;1.23;;
75603;SDS011;64187;51.010;13.792;2024-03-29T03:50:09;7.85;;;1.65;;
75603;SDS011;64187;51.010;13.792;2024-03-29T03:55:07;2.70;;;0.90;;
75603;SDS011;64187;51.010;13.792;2024-03-29T04:00:05;1.60;;;0.93;;
75603;SDS011;64187;51.010;13.792;2024-03-29T04:05:09;1.73;;;0.93;;
75603;SDS011;64187;51.010;13.792;2024-03-29T04:10:07;3.05;;;1.20;;
75603;SDS011;64187;51.010;13.792;2024-03-29T04:15:05;3.33;;;1.27;;
75603;SDS011;64187;51.010;13.792;2024-03-29T04:20:04;2.03;;;1.27;;
75603;SDS011;64187;51.010;13.792;2024-03-29T04:25:02;4.00;;;1.73;;
75603;SDS011;64187;51.010;13.792;2024-03-29T04:30:00;2.88;;;0.85;;
75603;SDS011;64187;51.010;13.792;2024-03-29T04:34:58;5.28;;;1.52;;
75603;SDS011;64187;51.010;13.792;2024-03-29T04:39:56;3.08;;;1.10;;
75603;SDS011;64187;51.010;13.792;2024-03-29T04:44:53;2.45;;;1.30;;
75603;SDS011;64187;51.010;13.792;2024-03-29T04:49:51;2.13;;;1.48;;
75603;SDS011;64187;51.010;13.792;2024-03-29T04:54:49;4.13;;;1.20;;
75603;SDS011;64187;51.010;13.792;2024-03-29T04:59:47;3.35;;;1.55;;
75603;SDS011;64187;51.010;13.792;2024-03-29T05:04:45;1.67;;;1.08;;
75603;SDS011;64187;51.010;13.792;2024-03-29T05:09:43;2.03;;;1.00;;
75603;SDS011;64187;51.010;13.792;2024-03-29T05:14:41;3.05;;;1.08;;
75603;SDS011;64187;51.010;13.792;2024-03-29T05:19:39;2.40;;;1.33;;
75603;SDS011;64187;51.010;13.792;2024-03-29T05:24:36;2.13;;;0.95;;
75603;SDS011;64187;51.010;13.792;2024-03-29T05:29:34;2.63;;;1.00;;
75603;SDS011;64187;51.010;13.792;2024-03-29T05:34:32;1.85;;;1.00;;
75603;SDS011;64187;51.010;13.792;2024-03-29T05:39:30;2.60;;;1.10;;
75603;SDS011;64187;51.010;13.792;2024-03-29T05:44:28;2.08;;;0.95;;
75603;SDS011;64187;51.010;13.792;2024-03-29T05:49:26;1.63;;;0.80;;
75603;SDS011;64187;51.010;13.792;2024-03-29T05:54:23;2.67;;;1.23;;
75603;SDS011;64187;51.010;13.792;2024-03-29T05:59:22;3.47;;;1.40;;
75603;SDS011;64187;51.010;13.792;2024-03-29T06:04:20;2.72;;;1.40;;
75603;SDS011;64187;51.010;13.792;2024-03-29T06:09:26;1.83;;;1.10;;
75603;SDS011;64187;51.010;13.792;2024-03-29T06:14:24;2.03;;;1.10;;
75603;SDS011;64187;51.010;13.792;2024-03-29T06:19:42;1.83;;;1.20;;
75603;SDS011;64187;51.010;13.792;2024-03-29T06:24:41;4.95;;;0.98;;
75603;SDS011;64187;51.010;13.792;2024-03-29T06:29:41;2.22;;;1.08;;
75603;SDS011;64187;51.010;13.792;2024-03-29T06:34:39;1.40;;;1.00;;
75603;SDS011;64187;51.010;13.792;2024-03-29T06:39:37;1.27;;;0.90;;
75603;SDS011;64187;51.010;13.792;2024-03-29T06:44:35;2.10;;;0.68;;
75603;SDS011;64187;51.010;13.792;2024-03-29T06:49:36;1.30;;;0.70;;
75603;SDS011;64187;51.010;13.792;2024-03-29T06:54:34;1.10;;;0.70;;
75603;SDS011;64187;51.010;13.792;2024-03-29T06:59:32;1.50;;;0.73;;
75603;SDS011;64187;51.010;13.792;2024-03-29T07:04:30;3.17;;;0.90;;
75603;SDS011;64187;51.010;13.792;2024-03-29T07:09:28;2.70;;;1.15;;
75603;SDS011;64187;51.010;13.792;2024-03-29T07:14:26;2.20;;;1.00;;
75603;SDS011;64187;51.010;13.792;2024-03-29T07:19:25;3.42;;;0.75;;
75603;SDS011;64187;51.010;13.792;2024-03-29T07:24:23;2.03;;;0.68;;
75603;SDS011;64187;51.010;13.792;2024-03-29T07:29:21;2.45;;;0.75;;
75603;SDS011;64187;51.010;13.792;2024-03-29T07:34:19;1.20;;;0.70;;
75603;SDS011;64187;51.010;13.792;2024-03-29T07:39:18;1.23;;;0.70;;
75603;SDS011;64187;51.010;13.792;2024-03-29T07:44:16;1.23;;;0.70;;
75603;SDS011;64187;51.010;13.792;2024-03-29T07:49:14;1.40;;;0.68;;
75603;SDS011;64187;51.010;13.792;2024-03-29T07:54:12;1.90;;;0.80;;
75603;SDS011;64187;51.010;13.792;2024-03-29T07:59:10;1.65;;;0.60;;
75603;SDS011;64187;51.010;13.792;2024-03-29T08:04:08;0.82;;;0.52;;
75603;SDS011;64187;51.010;13.792;2024-03-29T08:09:06;1.25;;;0.60;;
75603;SDS011;64187;51.010;13.792;2024-03-29T08:14:04;2.28;;;0.70;;
75603;SDS011;64187;51.010;13.792;2024-03-29T08:19:01;2.88;;;0.70;;
75603;SDS011;64187;51.010;13.792;2024-03-29T08:23:59;2.65;;;0.60;;
75603;SDS011;64187;51.010;13.792;2024-03-29T08:28:58;2.08;;;0.70;;
75603;SDS011;64187;51.010;13.792;2024-03-29T08:33:56;1.98;;;0.80;;
75603;SDS011;64187;51.010;13.792;2024-03-29T08:38:55;1.52;;;0.73;;
75603;SDS011;64187;51.010;13.792;2024-03-29T08:43:53;2.92;;;0.80;;
75603;SDS011;64187;51.010;13.792;2024-03-29T08:48:51;1.85;;;1.10;;
75603;SDS011;64187;51.010;13.792;2024-03-29T08:53:49;0.95;;;0.50;;
75603;SDS011;64187;51.010;13.792;2024-03-29T08:58:47;0.40;;;0.40;;
75603;SDS011;64187;51.010;13.792;2024-03-29T09:03:45;1.02;;;0.50;;
75603;SDS011;64187;51.010;13.792;2024-03-29T09:08:43;1.60;;;0.50;;
75603;SDS011;64187;51.010;13.792;2024-03-29T09:13:41;2.30;;;0.80;;
75603;SDS011;64187;51.010;13.792;2024-03-29T09:18:39;1.20;;;0.70;;
75603;SDS011;64187;51.010;13.792;2024-03-29T09:23:37;1.95;;;0.60;;
75603;SDS011;64187;51.010;13.792;2024-03-29T09:28:39;2.13;;;0.55;;
75603;SDS011;64187;51.010;13.792;2024-03-29T09:33:37;1.60;;;0.95;;
75603;SDS011;64187;51.010;13.792;2024-03-29T09:38:35;1.50;;;0.50;;
75603;SDS011;64187;51.010;13.792;2024-03-29T09:43:33;1.10;;;0.50;;
75603;SDS011;64187;51.010;13.792;2024-03-29T09:48:31;1.25;;;0.63;;
75603;SDS011;64187;51.010;13.792;2024-03-29T09:53:37;1.85;;;0.50;;
75603;SDS011;64187;51.010;13.792;2024-03-29T09:58:35;0.88;;;0.43;;
75603;SDS011;64187;51.010;13.792;2024-03-29T10:03:36;1.98;;;0.60;;
75603;SDS011;64187;51.010;13.792;2024-03-29T10:08:37;2.25;;;0.60;;
75603;SDS011;64187;51.010;13.792;2024-03-29T10:13:35;1.67;;;0.80;;
75603;SDS011;64187;51.010;13.792;2024-03-29T10:18:33;1.92;;;1.05;;
75603;SDS011;64187;51.010;13.792;2024-03-29T10:23:31;3.88;;;0.93;;
75603;SDS011;64187;51.010;13.792;2024-03-29T10:28:30;3.42;;;1.73;;
75603;SDS011;64187;51.010;13.792;2024-03-29T10:33:33;1.45;;;0.70;;
75603;SDS011;64187;51.010;13.792;2024-03-29T10:38:31;2.03;;;1.00;;
75603;SDS011;64187;51.010;13.792;2024-03-29T10:43:29;3.10;;;0.70;;
75603;SDS011;64187;51.010;13.792;2024-03-29T10:48:28;1.60;;;0.85;;
75603;SDS011;64187;51.010;13.792;2024-03-29T10:53:29;2.25;;;1.17;;
75603;SDS011;64187;51.010;13.792;2024-03-29T10:58:30;1.25;;;1.15;;
75603;SDS011;64187;51.010;13.792;2024-03-29T11:03:46;2.15;;;0.95;;
75603;SDS011;64187;51.010;13.792;2024-03-29T11:08:51;1.75;;;0.63;;
75603;SDS011;64187;51.010;13.792;2024-03-29T11:13:53;1.20;;;0.50;;
75603;SDS011;64187;51.010;13.792;2024-03-29T11:18:58;1.10;;;0.50;;
75603;SDS011;64187;51.010;13.792;2024-03-29T11:23:56;2.42;;;0.93;;
75603;SDS011;64187;51.010;13.792;2024-03-29T11:28:55;1.50;;;0.47;;
75603;SDS011;64187;51.010;13.792;2024-03-29T11:33:56;1.02;;;0.63;;
75603;SDS011;64187;51.010;13.792;2024-03-29T11:38:58;3.47;;;0.82;;
75603;SDS011;64187;51.010;13.792;2024-03-29T11:43:56;1.65;;;0.93;;
75603;SDS011;64187;51.010;13.792;2024-03-29T11:48:54;2.05;;;0.63;;
75603;SDS011;64187;51.010;13.792;2024-03-29T11:53:52;3.38;;;0.70;;
75603;SDS011;64187;51.010;13.792;2024-03-29T11:58:50;2.17;;;0.90;;
75603;SDS011;64187;51.010;13.792;2024-03-29T12:03:48;3.15;;;1.02;;
75603;SDS011;64187;51.010;13.792;2024-03-29T12:08:47;1.13;;;0.52;;
75603;SDS011;64187;51.010;13.792;2024-03-29T12:13:46;2.38;;;0.80;;
75603;SDS011;64187;51.010;13.792;2024-03-29T12:18:46;1.88;;;0.80;;
75603;SDS011;64187;51.010;13.792;2024-03-29T12:23:48;2.42;;;1.33;;
75603;SDS011;64187;51.010;13.792;2024-03-29T12:28:47;5.70;;;1.65;;
75603;SDS011;64187;51.010;13.792;2024-03-29T12:33:52;2.53;;;0.85;;
75603;SDS011;64187;51.010;13.792;2024-03-29T12:38:50;1.50;;;1.10;;
75603;SDS011;64187;51.010;13.792;2024-03-29T12:43:53;1.10;;;0.60;;
75603;SDS011;64187;51.010;13.792;2024-03-29T12:48:57;2.35;;;0.98;;
75603;SDS011;64187;51.010;13.792;2024-03-29T12:53:56;2.13;;;1.00;;
75603;SDS011;64187;51.010;13.792;2024-03-29T12:59:00;1.90;;;0.75;;
75603;SDS011;64187;51.010;13.792;2024-03-29T13:03:58;1.95;;;1.63;;
75603;SDS011;64187;51.010;13.792;2024-03-29T13:08:56;2.00;;;0.85;;
75603;SDS011;64187;51.010;13.792;2024-03-29T13:13:54;2.53;;;0.73;;
75603;SDS011;64187;51.010;13.792;2024-03-29T13:18:52;0.80;;;0.55;;
75603;SDS011;64187;51.010;13.792;2024-03-29T13:23:50;1.27;;;0.63;;
75603;SDS011;64187;51.010;13.792;2024-03-29T13:28:48;3.65;;;2.17;;
75603;SDS011;64187;51.010;13.792;2024-03-29T13:33:45;6.57;;;1.88;;
75603;SDS011;64187;51.010;13.792;2024-03-29T13:38:44;2.28;;;1.25;;
75603;SDS011;64187;51.010;13.792;2024-03-29T13:43:42;5.72;;;3.17;;
75603;SDS011;64187;51.010;13.792;2024-03-29T13:48:40;5.10;;;2.72;;
75603;SDS011;64187;51.010;13.792;2024-03-29T13:53:41;1.15;;;0.50;;
75603;SDS011;64187;51.010;13.792;2024-03-29T13:58:39;4.10;;;2.00;;
75603;SDS011;64187;51.010;13.792;2024-03-29T14:03:37;4.95;;;3.00;;
75603;SDS011;64187;51.010;13.792;2024-03-29T14:08:35;2.15;;;0.98;;
75603;SDS011;64187;51.010;13.792;2024-03-29T14:13:33;1.58;;;0.60;;
75603;SDS011;64187;51.010;13.792;2024-03-29T14:18:31;2.55;;;1.02;;
75603;SDS011;64187;51.010;13.792;2024-03-29T14:23:29;2.05;;;0.90;;
75603;SDS011;64187;51.010;13.792;2024-03-29T14:28:27;2.05;;;0.68;;
75603;SDS011;64187;51.010;13.792;2024-03-29T14:33:25;1.63;;;1.10;;
75603;SDS011;64187;51.010;13.792;2024-03-29T14:38:23;0.90;;;0.70;;
75603;SDS011;64187;51.010;13.792;2024-03-29T14:43:21;2.20;;;0.70;;
75603;SDS011;64187;51.010;13.792;2024-03-29T14:48:19;1.98;;;1.00;;
75603;SDS011;64187;51.010;13.792;2024-03-29T14:53:17;1.17;;;0.60;;
75603;SDS011;64187;51.010;13.792;2024-03-29T14:58:14;2.78;;;1.10;;
75603;SDS011;64187;51.010;13.792;2024-03-29T15:03:12;1.45;;;0.80;;
75603;SDS011;64187;51.010;13.792;2024-03-29T15:08:10;1.35;;;0.80;;
75603;SDS011;64187;51.010;13.792;2024-03-29T15:13:14;3.67;;;1.25;;
75603;SDS011;64187;51.010;13.792;2024-03-29T15:18:11;2.35;;;1.00;;
75603;SDS011;64187;51.010;13.792;2024-03-29T15:23:10;2.17;;;0.90;;
75603;SDS011;64187;51.010;13.792;2024-03-29T15:28:07;3.10;;;1.63;;
75603;SDS011;64187;51.010;13.792;2024-03-29T15:33:08;2.13;;;1.00;;
75603;SDS011;64187;51.010;13.792;2024-03-29T15:38:06;1.00;;;0.80;;
75603;SDS011;64187;51.010;13.792;2024-03-29T15:43:09;1.63;;;0.70;;
75603;SDS011;64187;51.010;13.792;2024-03-29T15:48:06;2.22;;;0.80;;
75603;SDS011;64187;51.010;13.792;2024-03-29T15:53:04;1.92;;;0.68;;
75603;SDS011;64187;51.010;13.792;2024-03-29T15:58:02;3.10;;;1.40;;
75603;SDS011;64187;51.010;13.792;2024-03-29T16:03:00;1.45;;;1.20;;
75603;SDS011;64187;51.010;13.792;2024-03-29T16:08:00;5.53;;;3.20;;
75603;SDS011;64187;51.010;13.792;2024-03-29T16:12:58;5.63;;;3.00;;
75603;SDS011;64187;51.010;13.792;2024-03-29T16:17:56;5.00;;;2.95;;
75603;SDS011;64187;51.010;13.792;2024-03-29T16:22:54;7.65;;;4.32;;
75603;SDS011;64187;51.010;13.792;2024-03-29T16:27:52;6.00;;;3.63;;
75603;SDS011;64187;51.010;13.792;2024-03-29T16:32:50;7.47;;;4.95;;
75603;SDS011;64187;51.010;13.792;2024-03-29T16:37:48;6.97;;;4.20;;
75603;SDS011;64187;51.010;13.792;2024-03-29T16:42:46;4.88;;;3.00;;
75603;SDS011;64187;51.010;13.792;2024-03-29T16:47:44;5.45;;;3.60;;
75603;SDS011;64187;51.010;13.792;2024-03-29T16:52:41;3.63;;;2.33;;
75603;SDS011;64187;51.010;13.792;2024-03-29T16:57:40;7.88;;;4.53;;
75603;SDS011;64187;51.010;13.792;2024-03-29T17:02:38;8.25;;;4.55;;
75603;SDS011;64187;51.010;13.792;2024-03-29T17:07:36;25.90;;;21.38;;
75603;SDS011;64187;51.010;13.792;2024-03-29T17:12:34;14.50;;;10.75;;
75603;SDS011;64187;51.010;13.792;2024-03-29T17:17:32;11.55;;;8.38;;
75603;SDS011;64187;51.010;13.792;2024-03-29T17:22:30;10.75;;;5.60;;
75603;SDS011;64187;51.010;13.792;2024-03-29T17:27:35;7.68;;;4.60;;
75603;SDS011;64187;51.010;13.792;2024-03-29T17:32:34;10.80;;;6.85;;
75603;SDS011;64187;51.010;13.792;2024-03-29T17:37:32;8.85;;;5.43;;
75603;SDS011;64187;51.010;13.792;2024-03-29T17:42:30;9.05;;;5.85;;
75603;SDS011;64187;51.010;13.792;2024-03-29T17:47:28;15.20;;;8.52;;
75603;SDS011;64187;51.010;13.792;2024-03-29T17:52:26;8.40;;;5.70;;
75603;SDS011;64187;51.010;13.792;2024-03-29T17:57:24;16.15;;;10.95;;
75603;SDS011;64187;51.010;13.792;2024-03-29T18:02:21;27.58;;;20.58;;
75603;SDS011;64187;51.010;13.792;2024-03-29T18:07:19;15.30;;;10.18;;
75603;SDS011;64187;51.010;13.792;2024-03-29T18:12:17;7.50;;;5.00;;
75603;SDS011;64187;51.010;13.792;2024-03-29T18:17:15;9.65;;;6.75;;
75603;SDS011;64187;51.010;13.792;2024-03-29T18:22:13;8.23;;;5.10;;
75603;SDS011;64187;51.010;13.792;2024-03-29T18:27:11;12.73;;;10.25;;
75603;SDS011;64187;51.010;13.792;2024-03-29T18:32:09;11.15;;;6.97;;
75603;SDS011;64187;51.010;13.792;2024-03-29T18:37:07;10.00;;;6.72;;
75603;SDS011;64187;51.010;13.792;2024-03-29T18:42:05;12.77;;;6.45;;
75603;SDS011;64187;51.010;13.792;2024-03-29T18:47:03;20.58;;;16.38;;
75603;SDS011;64187;51.010;13.792;2024-03-29T18:52:01;12.38;;;8.25;;
75603;SDS011;64187;51.010;13.792;2024-03-29T18:56:59;11.85;;;6.65;;
75603;SDS011;64187;51.010;13.792;2024-03-29T19:01:58;12.50;;;7.95;;
75603;SDS011;64187;51.010;13.792;2024-03-29T19:06:55;12.73;;;7.85;;
75603;SDS011;64187;51.010;13.792;2024-03-29T19:11:53;12.00;;;6.93;;
75603;SDS011;64187;51.010;13.792;2024-03-29T19:16:52;12.07;;;7.35;;
75603;SDS011;64187;51.010;13.792;2024-03-29T19:21:50;13.55;;;9.13;;
75603;SDS011;64187;51.010;13.792;2024-03-29T19:26:52;15.05;;;9.63;;
75603;SDS011;64187;51.010;13.792;2024-03-29T19:31:51;10.60;;;7.28;;
75603;SDS011;64187;51.010;13.792;2024-03-29T19:36:49;12.18;;;7.78;;
75603;SDS011;64187;51.010;13.792;2024-03-29T19:41:50;10.43;;;7.45;;
75603;SDS011;64187;51.010;13.792;2024-03-29T19:46:48;11.52;;;7.38;;
75603;SDS011;64187;51.010;13.792;2024-03-29T19:51:46;10.88;;;6.97;;
75603;SDS011;64187;51.010;13.792;2024-03-29T19:56:44;9.80;;;7.10;;
75603;SDS011;64187;51.010;13.792;2024-03-29T20:01:41;20.00;;;12.23;;
75603;SDS011;64187;51.010;13.792;2024-03-29T20:06:39;17.02;;;9.63;;
75603;SDS011;64187;51.010;13.792;2024-03-29T20:11:37;14.45;;;7.93;;
75603;SDS011;64187;51.010;13.792;2024-03-29T20:16:35;12.13;;;9.32;;
75603;SDS011;64187;51.010;13.792;2024-03-29T20:21:33;10.88;;;7.68;;
75603;SDS011;64187;51.010;13.792;2024-03-29T20:26:32;11.13;;;7.10;;
75603;SDS011;64187;51.010;13.792;2024-03-29T20:31:30;8.43;;;5.50;;
75603;SDS011;64187;51.010;13.792;2024-03-29T20:36:28;8.35;;;5.82;;
75603;SDS011;64187;51.010;13.792;2024-03-29T20:41:26;8.27;;;5.88;;
75603;SDS011;64187;51.010;13.792;2024-03-29T20:46:24;7.32;;;5.80;;
75603;SDS011;64187;51.010;13.792;2024-03-29T20:51:22;8.60;;;5.28;;
75603;SDS011;64187;51.010;13.792;2024-03-29T20:56:20;6.93;;;4.70;;
75603;SDS011;64187;51.010;13.792;2024-03-29T21:01:18;9.13;;;5.50;;
75603;SDS011;64187;51.010;13.792;2024-03-29T21:06:36;8.32;;;4.97;;
75603;SDS011;64187;51.010;13.792;2024-03-29T21:11:34;8.63;;;5.18;;
75603;SDS011;64187;51.010;13.792;2024-03-29T21:16:32;8.65;;;4.72;;
75603;SDS011;64187;51.010;13.792;2024-03-29T21:21:32;6.95;;;4.93;;
75603;SDS011;64187;51.010;13.792;2024-03-29T21:26:32;8.48;;;5.55;;
75603;SDS011;64187;51.010;13.792;2024-03-29T21:31:30;9.30;;;5.55;;
75603;SDS011;64187;51.010;13.792;2024-03-29T21:36:28;6.05;;;3.95;;
75603;SDS011;64187;51.010;13.792;2024-03-29T21:41:26;6.18;;;4.35;;
75603;SDS011;64187;51.010;13.792;2024-03-29T21:46:24;9.48;;;4.40;;
75603;SDS011;64187;51.010;13.792;2024-03-29T21:51:22;6.93;;;3.92;;
75603;SDS011;64187;51.010;13.792;2024-03-29T21:56:19;6.53;;;4.13;;
75603;SDS011;64187;51.010;13.792;2024-03-29T22:01:17;6.18;;;3.97;;
75603;SDS011;64187;51.010;13.792;2024-03-29T22:06:18;6.97;;;3.60;;
75603;SDS011;64187;51.010;13.792;2024-03-29T22:11:16;5.90;;;3.95;;
75603;SDS011;64187;51.010;13.792;2024-03-29T22:16:14;7.80;;;3.80;;
75603;SDS011;64187;51.010;13.792;2024-03-29T22:21:12;6.78;;;3.38;;
75603;SDS011;64187;51.010;13.792;2024-03-29T22:26:10;5.03;;;3.85;;
75603;SDS011;64187;51.010;13.792;2024-03-29T22:31:08;5.90;;;3.10;;
75603;SDS011;64187;51.010;13.792;2024-03-29T22:36:06;5.75;;;3.33;;
75603;SDS011;64187;51.010;13.792;2024-03-29T22:41:04;6.15;;;3.97;;
75603;SDS011;64187;51.010;13.792;2024-03-29T22:46:02;5.82;;;3.42;;
75603;SDS011;64187;51.010;13.792;2024-03-29T22:51:00;6.57;;;3.45;;
75603;SDS011;64187;51.010;13.792;2024-03-29T22:55:58;4.68;;;2.92;;
75603;SDS011;64187;51.010;13.792;2024-03-29T23:00:56;7.30;;;3.80;;
75603;SDS011;64187;51.010;13.792;2024-03-29T23:05:54;4.88;;;3.83;;
75603;SDS011;64187;51.010;13.792;2024-03-29T23:10:52;6.32;;;3.40;;
75603;SDS011;64187;51.010;13.792;2024-03-29T23:15:51;5.75;;;3.38;;
75603;SDS011;64187;51.010;13.792;2024-03-29T23:20:49;6.10;;;3.70;;
75603;SDS011;64187;51.010;13.792;2024-03-29T23:25:51;4.72;;;2.97;;
75603;SDS011;64187;51.010;13.792;2024-03-29T23:30:49;5.80;;;2.70;;
75603;SDS011;64187;51.010;13.792;2024-03-29T23:35:53;9.57;;;3.63;;
75603;SDS011;64187;51.010;13.792;2024-03-29T23:45:57;6.32;;;4.30;;
75603;SDS011;64187;51.010;13.792;2024-03-29T23:51:02;7.57;;;3.60;;
75603;SDS011;64187;51.010;13.792;2024-03-29T23:56:00;8.70;;;3.42;;
